sensor_id;sensor_type;location;lat;lon;timestamp;P1;durP1;ratioP1;P2;durP2;ratioP2
63005;SDS011;53704;52.532;6.426;2023-12-28T00:02:24;5.15;;;2.58;;
63005;SDS011;53704;52.532;6.426;2023-12-28T00:04:49;8.30;;;2.40;;
63005;SDS011;53704;52.532;6.426;2023-12-28T00:07:15;3.45;;;3.15;;
63005;SDS011;53704;52.532;6.426;2023-12-28T00:09:40;4.60;;;3.08;;
63005;SDS011;53704;52.532;6.426;2023-12-28T00:12:06;4.30;;;2.47;;
63005;SDS011;53704;52.532;6.426;2023-12-28T00:14:31;3.13;;;2.78;;
63005;SDS011;53704;52.532;6.426;2023-12-28T00:16:57;2.58;;;2.38;;
63005;SDS011;53704;52.532;6.426;2023-12-28T00:19:22;2.83;;;2.50;;
63005;SDS011;53704;52.532;6.426;2023-12-28T00:21:48;3.75;;;2.47;;
63005;SDS011;53704;52.532;6.426;2023-12-28T00:24:15;2.85;;;2.42;;
63005;SDS011;53704;52.532;6.426;2023-12-28T00:26:41;2.47;;;2.20;;
63005;SDS011;53704;52.532;6.426;2023-12-28T00:29:06;3.00;;;2.40;;
63005;SDS011;53704;52.532;6.426;2023-12-28T00:31:32;3.00;;;2.80;;
63005;SDS011;53704;52.532;6.426;2023-12-28T00:33:58;5.05;;;2.55;;
63005;SDS011;53704;52.532;6.426;2023-12-28T00:36:23;2.63;;;2.17;;
63005;SDS011;53704;52.532;6.426;2023-12-28T00:38:49;12.02;;;3.17;;
63005;SDS011;53704;52.532;6.426;2023-12-28T00:41:15;3.72;;;2.67;;
63005;SDS011;53704;52.532;6.426;2023-12-28T00:43:41;7.47;;;2.72;;
63005;SDS011;53704;52.532;6.426;2023-12-28T00:46:06;2.75;;;2.53;;
63005;SDS011;53704;52.532;6.426;2023-12-28T00:48:32;4.20;;;2.47;;
63005;SDS011;53704;52.532;6.426;2023-12-28T00:50:57;3.17;;;2.60;;
63005;SDS011;53704;52.532;6.426;2023-12-28T00:53:24;2.72;;;2.40;;
63005;SDS011;53704;52.532;6.426;2023-12-28T00:55:51;7.03;;;2.45;;
63005;SDS011;53704;52.532;6.426;2023-12-28T00:58:16;3.05;;;2.35;;
63005;SDS011;53704;52.532;6.426;2023-12-28T01:00:42;5.90;;;2.75;;
63005;SDS011;53704;52.532;6.426;2023-12-28T01:03:07;3.17;;;2.63;;
63005;SDS011;53704;52.532;6.426;2023-12-28T01:05:33;4.45;;;2.83;;
63005;SDS011;53704;52.532;6.426;2023-12-28T01:07:58;4.65;;;2.80;;
63005;SDS011;53704;52.532;6.426;2023-12-28T01:10:24;8.10;;;2.88;;
63005;SDS011;53704;52.532;6.426;2023-12-28T01:12:49;4.50;;;2.78;;
63005;SDS011;53704;52.532;6.426;2023-12-28T01:15:15;3.83;;;2.67;;
63005;SDS011;53704;52.532;6.426;2023-12-28T01:17:42;4.15;;;3.40;;
63005;SDS011;53704;52.532;6.426;2023-12-28T01:20:08;9.63;;;3.42;;
63005;SDS011;53704;52.532;6.426;2023-12-28T01:22:34;2.63;;;2.33;;
63005;SDS011;53704;52.532;6.426;2023-12-28T01:25:00;6.10;;;2.65;;
63005;SDS011;53704;52.532;6.426;2023-12-28T01:27:25;8.18;;;2.67;;
63005;SDS011;53704;52.532;6.426;2023-12-28T01:29:51;3.70;;;2.65;;
63005;SDS011;53704;52.532;6.426;2023-12-28T01:32:16;9.63;;;2.80;;
63005;SDS011;53704;52.532;6.426;2023-12-28T01:34:42;4.65;;;3.00;;
63005;SDS011;53704;52.532;6.426;2023-12-28T01:37:08;6.72;;;3.25;;
63005;SDS011;53704;52.532;6.426;2023-12-28T01:39:33;3.33;;;2.58;;
63005;SDS011;53704;52.532;6.426;2023-12-28T01:41:59;2.60;;;2.38;;
63005;SDS011;53704;52.532;6.426;2023-12-28T01:44:24;9.13;;;2.72;;
63005;SDS011;53704;52.532;6.426;2023-12-28T01:46:50;6.53;;;2.85;;
63005;SDS011;53704;52.532;6.426;2023-12-28T01:49:15;6.47;;;2.60;;
63005;SDS011;53704;52.532;6.426;2023-12-28T01:51:41;4.47;;;2.58;;
63005;SDS011;53704;52.532;6.426;2023-12-28T01:54:08;3.20;;;2.90;;
63005;SDS011;53704;52.532;6.426;2023-12-28T01:56:34;4.45;;;2.45;;
63005;SDS011;53704;52.532;6.426;2023-12-28T01:58:59;4.32;;;2.95;;
63005;SDS011;53704;52.532;6.426;2023-12-28T02:01:25;6.00;;;2.67;;
63005;SDS011;53704;52.532;6.426;2023-12-28T02:03:51;4.55;;;2.92;;
63005;SDS011;53704;52.532;6.426;2023-12-28T02:06:17;13.23;;;3.30;;
63005;SDS011;53704;52.532;6.426;2023-12-28T02:08:44;8.68;;;3.38;;
63005;SDS011;53704;52.532;6.426;2023-12-28T02:11:09;9.30;;;2.83;;
63005;SDS011;53704;52.532;6.426;2023-12-28T02:13:36;6.07;;;3.08;;
63005;SDS011;53704;52.532;6.426;2023-12-28T02:19:15;9.27;;;3.03;;
63005;SDS011;53704;52.532;6.426;2023-12-28T02:22:03;2.95;;;2.58;;
63005;SDS011;53704;52.532;6.426;2023-12-28T02:24:29;8.18;;;3.13;;
63005;SDS011;53704;52.532;6.426;2023-12-28T02:26:54;4.03;;;2.60;;
63005;SDS011;53704;52.532;6.426;2023-12-28T02:29:19;6.38;;;2.53;;
63005;SDS011;53704;52.532;6.426;2023-12-28T02:31:46;8.20;;;3.13;;
63005;SDS011;53704;52.532;6.426;2023-12-28T02:34:21;7.18;;;2.88;;
63005;SDS011;53704;52.532;6.426;2023-12-28T02:36:53;14.02;;;3.03;;
63005;SDS011;53704;52.532;6.426;2023-12-28T02:39:21;7.70;;;3.25;;
63005;SDS011;53704;52.532;6.426;2023-12-28T02:41:48;9.10;;;2.90;;
63005;SDS011;53704;52.532;6.426;2023-12-28T02:44:14;6.55;;;2.95;;
63005;SDS011;53704;52.532;6.426;2023-12-28T02:46:40;7.95;;;3.38;;
63005;SDS011;53704;52.532;6.426;2023-12-28T02:49:05;7.60;;;3.13;;
63005;SDS011;53704;52.532;6.426;2023-12-28T02:51:30;8.15;;;2.72;;
63005;SDS011;53704;52.532;6.426;2023-12-28T02:53:56;3.78;;;2.60;;
63005;SDS011;53704;52.532;6.426;2023-12-28T02:56:21;5.10;;;2.97;;
63005;SDS011;53704;52.532;6.426;2023-12-28T02:58:47;13.32;;;2.95;;
63005;SDS011;53704;52.532;6.426;2023-12-28T03:01:12;4.68;;;2.72;;
63005;SDS011;53704;52.532;6.426;2023-12-28T03:03:38;6.20;;;2.58;;
63005;SDS011;53704;52.532;6.426;2023-12-28T03:06:03;5.32;;;2.75;;
63005;SDS011;53704;52.532;6.426;2023-12-28T03:08:29;4.13;;;2.53;;
63005;SDS011;53704;52.532;6.426;2023-12-28T03:10:54;7.18;;;2.80;;
63005;SDS011;53704;52.532;6.426;2023-12-28T03:13:20;9.27;;;3.38;;
63005;SDS011;53704;52.532;6.426;2023-12-28T03:15:45;8.15;;;3.00;;
63005;SDS011;53704;52.532;6.426;2023-12-28T03:18:11;7.63;;;2.65;;
63005;SDS011;53704;52.532;6.426;2023-12-28T03:20:37;3.20;;;2.83;;
63005;SDS011;53704;52.532;6.426;2023-12-28T03:23:02;8.80;;;2.70;;
63005;SDS011;53704;52.532;6.426;2023-12-28T03:25:28;5.28;;;2.55;;
63005;SDS011;53704;52.532;6.426;2023-12-28T03:27:54;10.07;;;3.00;;
63005;SDS011;53704;52.532;6.426;2023-12-28T03:30:20;8.85;;;3.17;;
63005;SDS011;53704;52.532;6.426;2023-12-28T03:32:45;13.10;;;3.08;;
63005;SDS011;53704;52.532;6.426;2023-12-28T03:35:10;5.05;;;2.60;;
63005;SDS011;53704;52.532;6.426;2023-12-28T03:37:36;6.03;;;2.75;;
63005;SDS011;53704;52.532;6.426;2023-12-28T03:40:02;7.95;;;2.53;;
63005;SDS011;53704;52.532;6.426;2023-12-28T03:42:27;10.00;;;2.88;;
63005;SDS011;53704;52.532;6.426;2023-12-28T03:44:53;10.48;;;2.88;;
63005;SDS011;53704;52.532;6.426;2023-12-28T03:47:18;13.70;;;2.85;;
63005;SDS011;53704;52.532;6.426;2023-12-28T03:49:44;4.90;;;2.40;;
63005;SDS011;53704;52.532;6.426;2023-12-28T03:52:09;9.85;;;2.83;;
63005;SDS011;53704;52.532;6.426;2023-12-28T03:54:34;5.80;;;2.53;;
63005;SDS011;53704;52.532;6.426;2023-12-28T03:57:02;9.68;;;2.75;;
63005;SDS011;53704;52.532;6.426;2023-12-28T03:59:28;7.43;;;2.40;;
63005;SDS011;53704;52.532;6.426;2023-12-28T04:01:53;4.30;;;2.25;;
63005;SDS011;53704;52.532;6.426;2023-12-28T04:04:18;6.88;;;3.08;;
63005;SDS011;53704;52.532;6.426;2023-12-28T04:06:44;9.15;;;2.50;;
63005;SDS011;53704;52.532;6.426;2023-12-28T04:09:13;8.63;;;2.92;;
63005;SDS011;53704;52.532;6.426;2023-12-28T04:11:38;8.63;;;2.30;;
63005;SDS011;53704;52.532;6.426;2023-12-28T04:14:04;3.95;;;1.90;;
63005;SDS011;53704;52.532;6.426;2023-12-28T04:16:29;16.42;;;2.47;;
63005;SDS011;53704;52.532;6.426;2023-12-28T04:18:55;14.30;;;2.72;;
63005;SDS011;53704;52.532;6.426;2023-12-28T04:21:21;9.60;;;2.38;;
63005;SDS011;53704;52.532;6.426;2023-12-28T04:23:46;13.15;;;3.03;;
63005;SDS011;53704;52.532;6.426;2023-12-28T04:26:12;7.88;;;2.00;;
63005;SDS011;53704;52.532;6.426;2023-12-28T04:28:37;8.23;;;2.50;;
63005;SDS011;53704;52.532;6.426;2023-12-28T04:31:04;6.50;;;1.98;;
63005;SDS011;53704;52.532;6.426;2023-12-28T04:33:30;6.00;;;2.22;;
63005;SDS011;53704;52.532;6.426;2023-12-28T04:35:56;11.85;;;2.70;;
63005;SDS011;53704;52.532;6.426;2023-12-28T04:38:22;18.55;;;3.15;;
63005;SDS011;53704;52.532;6.426;2023-12-28T04:40:47;12.85;;;2.40;;
63005;SDS011;53704;52.532;6.426;2023-12-28T04:43:13;6.25;;;2.42;;
63005;SDS011;53704;52.532;6.426;2023-12-28T04:45:38;11.25;;;2.67;;
63005;SDS011;53704;52.532;6.426;2023-12-28T04:48:04;10.95;;;2.25;;
63005;SDS011;53704;52.532;6.426;2023-12-28T04:50:30;14.15;;;2.67;;
63005;SDS011;53704;52.532;6.426;2023-12-28T04:52:55;13.18;;;2.30;;
63005;SDS011;53704;52.532;6.426;2023-12-28T04:55:20;12.93;;;2.63;;
63005;SDS011;53704;52.532;6.426;2023-12-28T04:57:46;16.08;;;3.03;;
63005;SDS011;53704;52.532;6.426;2023-12-28T05:00:11;11.55;;;2.65;;
63005;SDS011;53704;52.532;6.426;2023-12-28T05:02:37;10.25;;;2.20;;
63005;SDS011;53704;52.532;6.426;2023-12-28T05:05:03;9.70;;;2.40;;
63005;SDS011;53704;52.532;6.426;2023-12-28T05:07:29;13.82;;;2.33;;
63005;SDS011;53704;52.532;6.426;2023-12-28T05:09:54;13.40;;;3.03;;
63005;SDS011;53704;52.532;6.426;2023-12-28T05:12:19;8.80;;;2.92;;
63005;SDS011;53704;52.532;6.426;2023-12-28T05:14:48;12.52;;;3.00;;
63005;SDS011;53704;52.532;6.426;2023-12-28T05:17:13;8.27;;;2.60;;
63005;SDS011;53704;52.532;6.426;2023-12-28T05:19:39;11.82;;;3.22;;
63005;SDS011;53704;52.532;6.426;2023-12-28T05:22:05;17.67;;;3.08;;
63005;SDS011;53704;52.532;6.426;2023-12-28T05:24:33;18.50;;;3.03;;
63005;SDS011;53704;52.532;6.426;2023-12-28T05:26:59;8.35;;;2.42;;
63005;SDS011;53704;52.532;6.426;2023-12-28T05:29:24;14.45;;;2.72;;
63005;SDS011;53704;52.532;6.426;2023-12-28T05:31:50;13.23;;;2.80;;
63005;SDS011;53704;52.532;6.426;2023-12-28T05:34:15;13.18;;;3.15;;
63005;SDS011;53704;52.532;6.426;2023-12-28T05:36:40;13.30;;;2.83;;
63005;SDS011;53704;52.532;6.426;2023-12-28T05:39:07;17.75;;;2.97;;
63005;SDS011;53704;52.532;6.426;2023-12-28T05:41:36;9.80;;;2.50;;
63005;SDS011;53704;52.532;6.426;2023-12-28T05:44:02;21.98;;;3.00;;
63005;SDS011;53704;52.532;6.426;2023-12-28T05:46:27;15.40;;;3.53;;
63005;SDS011;53704;52.532;6.426;2023-12-28T05:48:53;12.63;;;2.90;;
63005;SDS011;53704;52.532;6.426;2023-12-28T05:51:18;12.25;;;3.15;;
63005;SDS011;53704;52.532;6.426;2023-12-28T05:53:44;21.58;;;2.92;;
63005;SDS011;53704;52.532;6.426;2023-12-28T05:56:09;12.85;;;2.45;;
63005;SDS011;53704;52.532;6.426;2023-12-28T05:58:35;10.10;;;2.47;;
63005;SDS011;53704;52.532;6.426;2023-12-28T06:01:01;9.15;;;2.35;;
63005;SDS011;53704;52.532;6.426;2023-12-28T06:03:30;31.95;;;3.47;;
63005;SDS011;53704;52.532;6.426;2023-12-28T06:05:56;14.68;;;2.90;;
63005;SDS011;53704;52.532;6.426;2023-12-28T06:08:21;14.70;;;4.00;;
63005;SDS011;53704;52.532;6.426;2023-12-28T06:10:46;23.67;;;3.88;;
63005;SDS011;53704;52.532;6.426;2023-12-28T06:13:12;11.75;;;2.55;;
63005;SDS011;53704;52.532;6.426;2023-12-28T06:15:38;23.50;;;3.25;;
63005;SDS011;53704;52.532;6.426;2023-12-28T06:18:03;20.23;;;3.28;;
63005;SDS011;53704;52.532;6.426;2023-12-28T06:20:29;20.15;;;2.85;;
63005;SDS011;53704;52.532;6.426;2023-12-28T06:22:55;20.65;;;3.03;;
63005;SDS011;53704;52.532;6.426;2023-12-28T06:25:20;19.52;;;3.63;;
63005;SDS011;53704;52.532;6.426;2023-12-28T06:27:46;15.90;;;3.55;;
63005;SDS011;53704;52.532;6.426;2023-12-28T06:30:12;14.82;;;3.78;;
63005;SDS011;53704;52.532;6.426;2023-12-28T06:32:38;23.92;;;4.15;;
63005;SDS011;53704;52.532;6.426;2023-12-28T06:35:03;12.10;;;3.08;;
63005;SDS011;53704;52.532;6.426;2023-12-28T06:37:29;9.38;;;2.67;;
63005;SDS011;53704;52.532;6.426;2023-12-28T06:39:54;19.35;;;3.20;;
63005;SDS011;53704;52.532;6.426;2023-12-28T06:42:20;20.55;;;3.13;;
63005;SDS011;53704;52.532;6.426;2023-12-28T06:44:45;17.30;;;2.90;;
63005;SDS011;53704;52.532;6.426;2023-12-28T06:47:11;15.32;;;3.20;;
63005;SDS011;53704;52.532;6.426;2023-12-28T06:49:36;16.25;;;4.00;;
63005;SDS011;53704;52.532;6.426;2023-12-28T06:52:02;17.38;;;2.72;;
63005;SDS011;53704;52.532;6.426;2023-12-28T06:54:27;14.07;;;2.80;;
63005;SDS011;53704;52.532;6.426;2023-12-28T06:56:53;18.85;;;2.97;;
63005;SDS011;53704;52.532;6.426;2023-12-28T06:59:18;10.65;;;2.92;;
63005;SDS011;53704;52.532;6.426;2023-12-28T07:01:43;17.63;;;3.30;;
63005;SDS011;53704;52.532;6.426;2023-12-28T07:04:10;24.20;;;3.80;;
63005;SDS011;53704;52.532;6.426;2023-12-28T07:06:35;15.60;;;3.50;;
63005;SDS011;53704;52.532;6.426;2023-12-28T07:09:01;17.95;;;3.42;;
63005;SDS011;53704;52.532;6.426;2023-12-28T07:11:27;21.10;;;3.22;;
63005;SDS011;53704;52.532;6.426;2023-12-28T07:13:52;24.02;;;3.67;;
63005;SDS011;53704;52.532;6.426;2023-12-28T07:16:20;21.05;;;2.85;;
63005;SDS011;53704;52.532;6.426;2023-12-28T07:18:46;14.75;;;2.63;;
63005;SDS011;53704;52.532;6.426;2023-12-28T07:21:11;17.42;;;3.50;;
63005;SDS011;53704;52.532;6.426;2023-12-28T07:23:37;25.38;;;3.97;;
63005;SDS011;53704;52.532;6.426;2023-12-28T07:26:03;23.85;;;3.78;;
63005;SDS011;53704;52.532;6.426;2023-12-28T07:28:29;21.23;;;3.28;;
63005;SDS011;53704;52.532;6.426;2023-12-28T07:30:54;31.55;;;4.65;;
63005;SDS011;53704;52.532;6.426;2023-12-28T07:33:20;19.15;;;3.25;;
63005;SDS011;53704;52.532;6.426;2023-12-28T07:35:45;19.67;;;3.08;;
63005;SDS011;53704;52.532;6.426;2023-12-28T07:38:11;16.92;;;3.75;;
63005;SDS011;53704;52.532;6.426;2023-12-28T07:40:37;25.30;;;3.53;;
63005;SDS011;53704;52.532;6.426;2023-12-28T07:43:02;17.25;;;2.63;;
63005;SDS011;53704;52.532;6.426;2023-12-28T07:45:28;27.75;;;3.60;;
63005;SDS011;53704;52.532;6.426;2023-12-28T07:47:54;25.13;;;4.30;;
63005;SDS011;53704;52.532;6.426;2023-12-28T07:50:20;23.27;;;3.30;;
63005;SDS011;53704;52.532;6.426;2023-12-28T07:52:46;20.38;;;3.95;;
63005;SDS011;53704;52.532;6.426;2023-12-28T07:55:12;24.15;;;3.78;;
63005;SDS011;53704;52.532;6.426;2023-12-28T07:57:37;23.27;;;4.00;;
63005;SDS011;53704;52.532;6.426;2023-12-28T08:00:03;27.38;;;4.18;;
63005;SDS011;53704;52.532;6.426;2023-12-28T08:02:30;19.38;;;3.25;;
63005;SDS011;53704;52.532;6.426;2023-12-28T08:04:56;16.92;;;3.00;;
63005;SDS011;53704;52.532;6.426;2023-12-28T08:07:21;20.63;;;3.60;;
63005;SDS011;53704;52.532;6.426;2023-12-28T08:09:46;24.20;;;3.65;;
63005;SDS011;53704;52.532;6.426;2023-12-28T08:12:12;25.92;;;3.97;;
63005;SDS011;53704;52.532;6.426;2023-12-28T08:14:37;26.08;;;3.88;;
63005;SDS011;53704;52.532;6.426;2023-12-28T08:17:03;34.20;;;4.28;;
63005;SDS011;53704;52.532;6.426;2023-12-28T08:19:28;24.83;;;5.07;;
63005;SDS011;53704;52.532;6.426;2023-12-28T08:21:54;28.13;;;4.22;;
63005;SDS011;53704;52.532;6.426;2023-12-28T08:24:19;18.45;;;3.85;;
63005;SDS011;53704;52.532;6.426;2023-12-28T08:26:45;29.02;;;4.13;;
63005;SDS011;53704;52.532;6.426;2023-12-28T08:29:10;24.17;;;4.45;;
63005;SDS011;53704;52.532;6.426;2023-12-28T08:31:36;17.05;;;3.95;;
63005;SDS011;53704;52.532;6.426;2023-12-28T08:34:02;30.35;;;4.10;;
63005;SDS011;53704;52.532;6.426;2023-12-28T08:36:27;18.48;;;3.97;;
63005;SDS011;53704;52.532;6.426;2023-12-28T08:38:53;35.53;;;4.95;;
63005;SDS011;53704;52.532;6.426;2023-12-28T08:41:19;30.20;;;4.53;;
63005;SDS011;53704;52.532;6.426;2023-12-28T08:43:45;26.58;;;4.45;;
63005;SDS011;53704;52.532;6.426;2023-12-28T08:46:12;30.65;;;5.43;;
63005;SDS011;53704;52.532;6.426;2023-12-28T08:48:38;25.58;;;4.68;;
63005;SDS011;53704;52.532;6.426;2023-12-28T08:51:03;27.42;;;4.38;;
63005;SDS011;53704;52.532;6.426;2023-12-28T08:53:29;21.95;;;4.95;;
63005;SDS011;53704;52.532;6.426;2023-12-28T08:55:54;33.78;;;5.85;;
63005;SDS011;53704;52.532;6.426;2023-12-28T08:58:19;29.75;;;4.20;;
63005;SDS011;53704;52.532;6.426;2023-12-28T09:00:45;26.98;;;3.95;;
63005;SDS011;53704;52.532;6.426;2023-12-28T09:03:11;29.35;;;5.22;;
63005;SDS011;53704;52.532;6.426;2023-12-28T09:05:37;24.40;;;4.30;;
63005;SDS011;53704;52.532;6.426;2023-12-28T09:08:02;24.95;;;4.22;;
63005;SDS011;53704;52.532;6.426;2023-12-28T09:10:28;22.35;;;4.38;;
63005;SDS011;53704;52.532;6.426;2023-12-28T09:12:54;18.92;;;3.63;;
63005;SDS011;53704;52.532;6.426;2023-12-28T09:15:19;23.23;;;3.47;;
63005;SDS011;53704;52.532;6.426;2023-12-28T09:17:45;23.95;;;3.78;;
63005;SDS011;53704;52.532;6.426;2023-12-28T09:20:10;23.88;;;3.63;;
63005;SDS011;53704;52.532;6.426;2023-12-28T09:22:38;17.55;;;3.45;;
63005;SDS011;53704;52.532;6.426;2023-12-28T09:25:04;23.38;;;4.20;;
63005;SDS011;53704;52.532;6.426;2023-12-28T09:27:30;24.65;;;4.35;;
63005;SDS011;53704;52.532;6.426;2023-12-28T09:29:55;23.80;;;4.40;;
63005;SDS011;53704;52.532;6.426;2023-12-28T09:32:21;31.60;;;4.38;;
63005;SDS011;53704;52.532;6.426;2023-12-28T09:34:47;27.92;;;3.90;;
63005;SDS011;53704;52.532;6.426;2023-12-28T09:37:12;32.42;;;4.22;;
63005;SDS011;53704;52.532;6.426;2023-12-28T09:39:38;18.83;;;3.53;;
63005;SDS011;53704;52.532;6.426;2023-12-28T09:42:07;30.88;;;4.85;;
63005;SDS011;53704;52.532;6.426;2023-12-28T09:44:41;23.60;;;4.45;;
63005;SDS011;53704;52.532;6.426;2023-12-28T09:47:09;28.73;;;3.53;;
63005;SDS011;53704;52.532;6.426;2023-12-28T09:49:37;24.60;;;4.85;;
63005;SDS011;53704;52.532;6.426;2023-12-28T09:52:05;23.75;;;4.45;;
63005;SDS011;53704;52.532;6.426;2023-12-28T09:54:31;27.27;;;4.38;;
63005;SDS011;53704;52.532;6.426;2023-12-28T09:56:57;24.90;;;5.00;;
63005;SDS011;53704;52.532;6.426;2023-12-28T09:59:22;27.48;;;4.28;;
63005;SDS011;53704;52.532;6.426;2023-12-28T10:01:49;31.67;;;4.70;;
63005;SDS011;53704;52.532;6.426;2023-12-28T10:04:15;30.13;;;4.25;;
63005;SDS011;53704;52.532;6.426;2023-12-28T10:06:41;26.17;;;4.40;;
63005;SDS011;53704;52.532;6.426;2023-12-28T10:09:09;27.92;;;3.85;;
63005;SDS011;53704;52.532;6.426;2023-12-28T10:11:35;23.33;;;4.25;;
63005;SDS011;53704;52.532;6.426;2023-12-28T10:14:01;20.15;;;3.72;;
63005;SDS011;53704;52.532;6.426;2023-12-28T10:16:29;21.88;;;3.72;;
63005;SDS011;53704;52.532;6.426;2023-12-28T10:18:55;22.40;;;4.22;;
63005;SDS011;53704;52.532;6.426;2023-12-28T10:21:22;25.58;;;3.55;;
63005;SDS011;53704;52.532;6.426;2023-12-28T10:23:48;18.30;;;3.83;;
63005;SDS011;53704;52.532;6.426;2023-12-28T10:26:14;25.92;;;3.95;;
63005;SDS011;53704;52.532;6.426;2023-12-28T10:28:42;31.55;;;4.05;;
63005;SDS011;53704;52.532;6.426;2023-12-28T10:31:09;29.42;;;4.45;;
63005;SDS011;53704;52.532;6.426;2023-12-28T10:33:35;17.98;;;3.45;;
63005;SDS011;53704;52.532;6.426;2023-12-28T10:36:01;17.48;;;3.83;;
63005;SDS011;53704;52.532;6.426;2023-12-28T10:38:35;28.33;;;4.50;;
63005;SDS011;53704;52.532;6.426;2023-12-28T10:41:02;28.98;;;6.03;;
63005;SDS011;53704;52.532;6.426;2023-12-28T10:43:31;36.58;;;5.22;;
63005;SDS011;53704;52.532;6.426;2023-12-28T10:46:07;27.42;;;4.15;;
63005;SDS011;53704;52.532;6.426;2023-12-28T10:48:35;41.08;;;5.53;;
63005;SDS011;53704;52.532;6.426;2023-12-28T10:51:06;23.80;;;4.97;;
63005;SDS011;53704;52.532;6.426;2023-12-28T10:53:57;16.90;;;3.90;;
63005;SDS011;53704;52.532;6.426;2023-12-28T10:56:47;32.00;;;5.65;;
63005;SDS011;53704;52.532;6.426;2023-12-28T10:59:23;28.98;;;3.95;;
63005;SDS011;53704;52.532;6.426;2023-12-28T11:01:51;15.23;;;3.17;;
63005;SDS011;53704;52.532;6.426;2023-12-28T11:06:55;28.90;;;4.13;;
63005;SDS011;53704;52.532;6.426;2023-12-28T11:09:21;23.20;;;4.65;;
63005;SDS011;53704;52.532;6.426;2023-12-28T11:11:49;30.63;;;4.38;;
63005;SDS011;53704;52.532;6.426;2023-12-28T11:14:16;27.20;;;4.40;;
63005;SDS011;53704;52.532;6.426;2023-12-28T11:16:43;23.20;;;4.05;;
63005;SDS011;53704;52.532;6.426;2023-12-28T11:19:10;26.10;;;4.38;;
63005;SDS011;53704;52.532;6.426;2023-12-28T11:21:36;29.13;;;3.53;;
63005;SDS011;53704;52.532;6.426;2023-12-28T11:24:03;34.60;;;4.63;;
63005;SDS011;53704;52.532;6.426;2023-12-28T11:26:30;23.88;;;3.85;;
63005;SDS011;53704;52.532;6.426;2023-12-28T11:29:02;17.08;;;3.67;;
63005;SDS011;53704;52.532;6.426;2023-12-28T11:31:31;25.85;;;4.65;;
63005;SDS011;53704;52.532;6.426;2023-12-28T11:33:59;23.23;;;3.65;;
63005;SDS011;53704;52.532;6.426;2023-12-28T11:36:26;22.27;;;4.13;;
63005;SDS011;53704;52.532;6.426;2023-12-28T11:39:04;22.67;;;3.97;;
63005;SDS011;53704;52.532;6.426;2023-12-28T11:41:35;23.25;;;4.30;;
63005;SDS011;53704;52.532;6.426;2023-12-28T11:44:04;30.10;;;4.13;;
63005;SDS011;53704;52.532;6.426;2023-12-28T11:46:31;22.98;;;3.25;;
63005;SDS011;53704;52.532;6.426;2023-12-28T11:49:04;28.60;;;4.30;;
63005;SDS011;53704;52.532;6.426;2023-12-28T11:51:33;27.70;;;4.45;;
63005;SDS011;53704;52.532;6.426;2023-12-28T11:54:02;32.40;;;4.70;;
63005;SDS011;53704;52.532;6.426;2023-12-28T11:56:28;25.30;;;4.70;;
63005;SDS011;53704;52.532;6.426;2023-12-28T11:58:54;27.58;;;3.97;;
63005;SDS011;53704;52.532;6.426;2023-12-28T12:01:20;29.85;;;4.45;;
63005;SDS011;53704;52.532;6.426;2023-12-28T12:03:45;24.55;;;4.03;;
63005;SDS011;53704;52.532;6.426;2023-12-28T12:06:11;29.13;;;4.82;;
63005;SDS011;53704;52.532;6.426;2023-12-28T12:08:36;28.55;;;4.97;;
63005;SDS011;53704;52.532;6.426;2023-12-28T12:11:02;29.75;;;4.47;;
63005;SDS011;53704;52.532;6.426;2023-12-28T12:13:30;30.33;;;5.38;;
63005;SDS011;53704;52.532;6.426;2023-12-28T12:15:56;27.77;;;4.47;;
63005;SDS011;53704;52.532;6.426;2023-12-28T12:18:22;17.15;;;4.10;;
63005;SDS011;53704;52.532;6.426;2023-12-28T12:20:48;27.70;;;4.70;;
63005;SDS011;53704;52.532;6.426;2023-12-28T12:23:14;29.42;;;5.78;;
63005;SDS011;53704;52.532;6.426;2023-12-28T12:25:40;34.95;;;5.22;;
63005;SDS011;53704;52.532;6.426;2023-12-28T12:28:06;32.28;;;4.35;;
63005;SDS011;53704;52.532;6.426;2023-12-28T12:30:33;29.02;;;4.28;;
63005;SDS011;53704;52.532;6.426;2023-12-28T12:32:59;38.38;;;6.57;;
63005;SDS011;53704;52.532;6.426;2023-12-28T12:35:25;41.05;;;5.93;;
63005;SDS011;53704;52.532;6.426;2023-12-28T12:37:50;31.77;;;5.07;;
63005;SDS011;53704;52.532;6.426;2023-12-28T12:40:16;35.95;;;5.00;;
63005;SDS011;53704;52.532;6.426;2023-12-28T12:42:54;31.42;;;4.70;;
63005;SDS011;53704;52.532;6.426;2023-12-28T12:45:20;33.25;;;4.78;;
63005;SDS011;53704;52.532;6.426;2023-12-28T12:47:47;29.55;;;4.13;;
63005;SDS011;53704;52.532;6.426;2023-12-28T12:50:13;32.40;;;4.32;;
63005;SDS011;53704;52.532;6.426;2023-12-28T12:52:41;23.70;;;4.32;;
63005;SDS011;53704;52.532;6.426;2023-12-28T12:55:11;28.10;;;5.28;;
63005;SDS011;53704;52.532;6.426;2023-12-28T12:57:38;36.35;;;5.07;;
63005;SDS011;53704;52.532;6.426;2023-12-28T13:00:05;26.50;;;4.22;;
63005;SDS011;53704;52.532;6.426;2023-12-28T13:02:33;34.03;;;5.25;;
63005;SDS011;53704;52.532;6.426;2023-12-28T13:05:01;42.05;;;6.07;;
63005;SDS011;53704;52.532;6.426;2023-12-28T13:07:27;30.77;;;5.00;;
63005;SDS011;53704;52.532;6.426;2023-12-28T13:09:53;27.65;;;4.65;;
63005;SDS011;53704;52.532;6.426;2023-12-28T13:12:18;28.27;;;5.53;;
63005;SDS011;53704;52.532;6.426;2023-12-28T13:14:44;39.47;;;6.28;;
63005;SDS011;53704;52.532;6.426;2023-12-28T13:17:10;33.03;;;4.80;;
63005;SDS011;53704;52.532;6.426;2023-12-28T13:19:36;30.20;;;4.90;;
63005;SDS011;53704;52.532;6.426;2023-12-28T13:22:01;25.55;;;3.75;;
63005;SDS011;53704;52.532;6.426;2023-12-28T13:24:27;28.02;;;4.93;;
63005;SDS011;53704;52.532;6.426;2023-12-28T13:26:53;31.30;;;5.35;;
63005;SDS011;53704;52.532;6.426;2023-12-28T13:29:18;30.23;;;4.35;;
63005;SDS011;53704;52.532;6.426;2023-12-28T13:31:44;34.83;;;4.72;;
63005;SDS011;53704;52.532;6.426;2023-12-28T13:34:10;23.85;;;4.10;;
63005;SDS011;53704;52.532;6.426;2023-12-28T13:36:36;26.25;;;4.65;;
63005;SDS011;53704;52.532;6.426;2023-12-28T13:39:02;32.72;;;4.43;;
63005;SDS011;53704;52.532;6.426;2023-12-28T13:41:27;28.83;;;5.32;;
63005;SDS011;53704;52.532;6.426;2023-12-28T13:43:53;27.63;;;4.40;;
63005;SDS011;53704;52.532;6.426;2023-12-28T13:46:25;26.95;;;4.78;;
63005;SDS011;53704;52.532;6.426;2023-12-28T13:48:50;18.98;;;4.30;;
63005;SDS011;53704;52.532;6.426;2023-12-28T13:51:16;21.92;;;4.40;;
63005;SDS011;53704;52.532;6.426;2023-12-28T13:53:41;40.97;;;4.88;;
63005;SDS011;53704;52.532;6.426;2023-12-28T13:56:07;33.58;;;4.45;;
63005;SDS011;53704;52.532;6.426;2023-12-28T13:58:33;28.88;;;4.30;;
63005;SDS011;53704;52.532;6.426;2023-12-28T14:00:59;29.73;;;3.65;;
63005;SDS011;53704;52.532;6.426;2023-12-28T14:03:24;24.35;;;4.78;;
63005;SDS011;53704;52.532;6.426;2023-12-28T14:05:50;21.02;;;4.13;;
63005;SDS011;53704;52.532;6.426;2023-12-28T14:08:15;39.22;;;4.43;;
63005;SDS011;53704;52.532;6.426;2023-12-28T14:10:41;25.77;;;4.60;;
63005;SDS011;53704;52.532;6.426;2023-12-28T14:13:06;26.27;;;4.80;;
63005;SDS011;53704;52.532;6.426;2023-12-28T14:15:32;24.58;;;4.32;;
63005;SDS011;53704;52.532;6.426;2023-12-28T14:17:57;32.03;;;5.93;;
63005;SDS011;53704;52.532;6.426;2023-12-28T14:20:23;25.45;;;3.92;;
63005;SDS011;53704;52.532;6.426;2023-12-28T14:22:48;27.55;;;5.03;;
63005;SDS011;53704;52.532;6.426;2023-12-28T14:25:14;25.48;;;4.30;;
63005;SDS011;53704;52.532;6.426;2023-12-28T14:27:40;28.98;;;4.88;;
63005;SDS011;53704;52.532;6.426;2023-12-28T14:30:06;28.42;;;4.72;;
63005;SDS011;53704;52.532;6.426;2023-12-28T14:32:34;32.50;;;4.85;;
63005;SDS011;53704;52.532;6.426;2023-12-28T14:35:00;30.30;;;4.57;;
63005;SDS011;53704;52.532;6.426;2023-12-28T14:37:26;20.83;;;4.68;;
63005;SDS011;53704;52.532;6.426;2023-12-28T14:39:51;28.80;;;4.38;;